NJE927H LIML-LIBR
Flight info
| Callsign | NJE927H |
|---|---|
| Flight time | 1h 11m |
| Altitude | 35000 |
| Route | LOGDI DCT LURUT DCT UVOKA/N0395F190 L612 DOLON |
| Aircraft | CL60/M-SBDE1E2E3FGHIJ1J4J5J7M3RWXYZ/LB1V1D1 |
Departure
| Time | 2026-04-29 17:45 |
|---|---|
| Airport | Milano Linate Airport (LIML) |
Arrival
| Time | 2026-04-29 18:56 |
|---|---|
| Airport | Brindisi Airport (LIBR) |
| Time | Latitude | Longitude | Altitude | Speed | Heading |
|---|---|---|---|---|---|
| 2026-04-29 17:17 | 45.45450 | 9.26352 | 356 ft | 0 kts | 64° |
| 2026-04-29 17:33 | 45.45455 | 9.26366 | 356 ft | 3 kts | 64° |
| 2026-04-29 17:34 | 45.45476 | 9.26387 | 356 ft | 5 kts | 306° |
| 2026-04-29 17:34 | 45.45499 | 9.26319 | 356 ft | 9 kts | 296° |
| 2026-04-29 17:34 | 45.45531 | 9.26228 | 358 ft | 11 kts | 299° |
| 2026-04-29 17:34 | 45.45596 | 9.26161 | 359 ft | 13 kts | 351° |
| 2026-04-29 17:35 | 45.45776 | 9.26143 | 359 ft | 18 kts | 357° |
| 2026-04-29 17:35 | 45.45942 | 9.26243 | 357 ft | 22 kts | 41° |
| 2026-04-29 17:35 | 45.46046 | 9.26418 | 354 ft | 25 kts | 68° |
| 2026-04-29 17:36 | 45.46067 | 9.26673 | 353 ft | 27 kts | 90° |
| 2026-04-29 17:36 | 45.46061 | 9.26943 | 355 ft | 27 kts | 92° |
| 2026-04-29 17:36 | 45.46021 | 9.27203 | 356 ft | 27 kts | 96° |
| 2026-04-29 17:36 | 45.46017 | 9.27473 | 359 ft | 27 kts | 90° |
| 2026-04-29 17:37 | 45.45976 | 9.27697 | 359 ft | 20 kts | 127° |
| 2026-04-29 17:37 | 45.45907 | 9.27877 | 360 ft | 21 kts | 88° |
| 2026-04-29 17:37 | 45.45861 | 9.27986 | 360 ft | 14 kts | 180° |
| 2026-04-29 17:37 | 45.45742 | 9.27985 | 357 ft | 19 kts | 182° |
| 2026-04-29 17:38 | 45.45592 | 9.27982 | 354 ft | 23 kts | 181° |
| 2026-04-29 17:38 | 45.45417 | 9.27980 | 353 ft | 26 kts | 181° |
| 2026-04-29 17:38 | 45.45242 | 9.27880 | 352 ft | 28 kts | 193° |
| 2026-04-29 17:38 | 45.45042 | 9.27887 | 353 ft | 29 kts | 175° |
| 2026-04-29 17:39 | 45.44837 | 9.27941 | 352 ft | 31 kts | 173° |
| 2026-04-29 17:39 | 45.44606 | 9.27967 | 347 ft | 34 kts | 177° |
| 2026-04-29 17:39 | 45.44363 | 9.27994 | 343 ft | 36 kts | 176° |
| 2026-04-29 17:39 | 45.44111 | 9.28018 | 342 ft | 37 kts | 176° |
| 2026-04-29 17:40 | 45.43847 | 9.28056 | 340 ft | 38 kts | 176° |
| 2026-04-29 17:40 | 45.43592 | 9.28076 | 339 ft | 29 kts | 177° |
| 2026-04-29 17:40 | 45.43453 | 9.28058 | 339 ft | 18 kts | 227° |
| 2026-04-29 17:40 | 45.43443 | 9.28011 | 339 ft | 0 kts | 280° |
| 2026-04-29 17:41 | 45.43446 | 9.27973 | 340 ft | 7 kts | 264° |
| 2026-04-29 17:41 | 45.43445 | 9.27970 | 340 ft | 0 kts | 264° |
| 2026-04-29 17:43 | 45.43444 | 9.27956 | 340 ft | 4 kts | 264° |
| 2026-04-29 17:43 | 45.43440 | 9.27876 | 341 ft | 10 kts | 275° |
| 2026-04-29 17:44 | 45.43491 | 9.27815 | 343 ft | 11 kts | 353° |
| 2026-04-29 17:44 | 45.43512 | 9.27813 | 343 ft | 0 kts | 357° |
| 2026-04-29 17:44 | 45.43520 | 9.27812 | 343 ft | 12 kts | 356° |
| 2026-04-29 17:44 | 45.43965 | 9.27766 | 343 ft | 116 kts | 354° |
| 2026-04-29 17:45 | 45.45016 | 9.27651 | 430 ft | 183 kts | 357° |
| 2026-04-29 17:45 | 45.46312 | 9.27500 | 1187 ft | 195 kts | 360° |
| 2026-04-29 17:45 | 45.47617 | 9.27496 | 2429 ft | 189 kts | 4° |
| 2026-04-29 17:45 | 45.48980 | 9.27594 | 3105 ft | 219 kts | 7° |
| 2026-04-29 17:46 | 45.50567 | 9.27887 | 3904 ft | 247 kts | 9° |
| 2026-04-29 17:46 | 45.52233 | 9.28403 | 4908 ft | 264 kts | 21° |
| 2026-04-29 17:46 | 45.53749 | 9.29924 | 6023 ft | 276 kts | 52° |
| 2026-04-29 17:46 | 45.54484 | 9.32386 | 7182 ft | 287 kts | 82° |
| 2026-04-29 17:47 | 45.54212 | 9.35204 | 8330 ft | 298 kts | 112° |
| 2026-04-29 17:47 | 45.53051 | 9.37567 | 9665 ft | 301 kts | 134° |
| 2026-04-29 17:47 | 45.51586 | 9.39488 | 11024 ft | 268 kts | 136° |
| 2026-04-29 17:47 | 45.50320 | 9.41165 | 11983 ft | 247 kts | 135° |
| 2026-04-29 17:48 | 45.49069 | 9.42892 | 12865 ft | 260 kts | 134° |
| 2026-04-29 17:48 | 45.47781 | 9.44739 | 13839 ft | 268 kts | 133° |
| 2026-04-29 17:48 | 45.46477 | 9.46684 | 14862 ft | 274 kts | 132° |
| 2026-04-29 17:48 | 45.45198 | 9.48670 | 15880 ft | 278 kts | 131° |
| 2026-04-29 17:49 | 45.43927 | 9.50724 | 16884 ft | 280 kts | 129° |
| 2026-04-29 17:49 | 45.42680 | 9.52826 | 17879 ft | 280 kts | 128° |
| 2026-04-29 17:49 | 45.41457 | 9.54980 | 18838 ft | 281 kts | 127° |
| 2026-04-29 17:49 | 45.40279 | 9.57151 | 19768 ft | 280 kts | 126° |
| 2026-04-29 17:50 | 45.39122 | 9.59407 | 20364 ft | 295 kts | 124° |
| 2026-04-29 17:50 | 45.37833 | 9.61920 | 20366 ft | 330 kts | 133° |
| 2026-04-29 17:50 | 45.35958 | 9.63967 | 20635 ft | 351 kts | 150° |
| 2026-04-29 17:50 | 45.33810 | 9.65798 | 21215 ft | 364 kts | 150° |
| 2026-04-29 17:51 | 45.31658 | 9.67660 | 21990 ft | 369 kts | 150° |
| 2026-04-29 17:51 | 45.29469 | 9.69554 | 22816 ft | 372 kts | 150° |
| 2026-04-29 17:51 | 45.27230 | 9.71491 | 23584 ft | 376 kts | 150° |
| 2026-04-29 17:51 | 45.24984 | 9.73434 | 24334 ft | 381 kts | 150° |
| 2026-04-29 17:52 | 45.22714 | 9.75397 | 25034 ft | 386 kts | 151° |
| 2026-04-29 17:52 | 45.21206 | 9.76700 | 25480 ft | 390 kts | 151° |
| 2026-04-29 17:52 | 45.18135 | 9.79354 | 26362 ft | 396 kts | 151° |
| 2026-04-29 17:52 | 45.15750 | 9.81414 | 27007 ft | 400 kts | 151° |
| 2026-04-29 17:53 | 45.13387 | 9.83453 | 27609 ft | 405 kts | 151° |
| 2026-04-29 17:53 | 45.10959 | 9.85548 | 28192 ft | 409 kts | 151° |
| 2026-04-29 17:53 | 45.08517 | 9.87651 | 28773 ft | 413 kts | 151° |
| 2026-04-29 17:53 | 45.06051 | 9.89775 | 29341 ft | 416 kts | 151° |
| 2026-04-29 17:54 | 45.03561 | 9.91918 | 29892 ft | 420 kts | 151° |
| 2026-04-29 17:54 | 45.01054 | 9.94074 | 30417 ft | 423 kts | 151° |
| 2026-04-29 17:54 | 44.98552 | 9.96222 | 30860 ft | 427 kts | 151° |
| 2026-04-29 17:54 | 44.95995 | 9.98417 | 31339 ft | 431 kts | 151° |
| 2026-04-29 17:55 | 44.93430 | 10.00617 | 31794 ft | 433 kts | 151° |
| 2026-04-29 17:55 | 44.90854 | 10.02823 | 32201 ft | 437 kts | 151° |
| 2026-04-29 17:55 | 44.88252 | 10.05049 | 32648 ft | 439 kts | 151° |
| 2026-04-29 17:55 | 44.85654 | 10.07271 | 33059 ft | 441 kts | 151° |
| 2026-04-29 17:56 | 44.83018 | 10.09522 | 33419 ft | 444 kts | 151° |
| 2026-04-29 17:56 | 44.80389 | 10.11765 | 33795 ft | 446 kts | 151° |
| 2026-04-29 17:56 | 44.77769 | 10.14149 | 34218 ft | 447 kts | 146° |
| 2026-04-29 17:56 | 44.75365 | 10.16903 | 34683 ft | 448 kts | 139° |
| 2026-04-29 17:57 | 44.73184 | 10.20058 | 34989 ft | 451 kts | 131° |
| 2026-04-29 17:57 | 44.69643 | 10.27503 | 35057 ft | 469 kts | 116° |
| 2026-04-29 17:58 | 44.67343 | 10.36165 | 35048 ft | 485 kts | 108° |
| 2026-04-29 17:58 | 44.65151 | 10.45258 | 35058 ft | 495 kts | 108° |
| 2026-04-29 17:59 | 44.62938 | 10.54414 | 35057 ft | 497 kts | 108° |
| 2026-04-29 17:59 | 44.60726 | 10.63547 | 35053 ft | 495 kts | 107° |
| 2026-04-29 18:00 | 44.58511 | 10.72673 | 35054 ft | 494 kts | 108° |
| 2026-04-29 18:00 | 44.56290 | 10.81795 | 35056 ft | 494 kts | 108° |
| 2026-04-29 18:01 | 44.54080 | 10.90841 | 35059 ft | 494 kts | 108° |
| 2026-04-29 18:01 | 44.51466 | 10.99765 | 35055 ft | 495 kts | 118° |
| 2026-04-29 18:02 | 44.47761 | 11.07785 | 35058 ft | 495 kts | 125° |
| 2026-04-29 18:02 | 44.43873 | 11.15738 | 35065 ft | 496 kts | 125° |
| 2026-04-29 18:03 | 44.39974 | 11.23710 | 35064 ft | 495 kts | 124° |
| 2026-04-29 18:03 | 44.36091 | 11.31638 | 35066 ft | 495 kts | 124° |
| 2026-04-29 18:04 | 44.32193 | 11.39581 | 35077 ft | 494 kts | 125° |
| 2026-04-29 18:04 | 44.28305 | 11.47489 | 35066 ft | 495 kts | 124° |
| 2026-04-29 18:05 | 44.24413 | 11.55387 | 35067 ft | 494 kts | 124° |
| 2026-04-29 18:05 | 44.20520 | 11.63269 | 35067 ft | 495 kts | 124° |
| 2026-04-29 18:06 | 44.16616 | 11.71155 | 35066 ft | 494 kts | 125° |
| 2026-04-29 18:06 | 44.12734 | 11.78978 | 35082 ft | 493 kts | 125° |
| 2026-04-29 18:07 | 44.08837 | 11.86811 | 35082 ft | 493 kts | 125° |
| 2026-04-29 18:07 | 44.04920 | 11.94664 | 35078 ft | 492 kts | 125° |
| 2026-04-29 18:08 | 44.00998 | 12.02505 | 35071 ft | 491 kts | 125° |
| 2026-04-29 18:08 | 43.97122 | 12.10238 | 35060 ft | 491 kts | 125° |
| 2026-04-29 18:09 | 43.93200 | 12.18040 | 35069 ft | 492 kts | 125° |
| 2026-04-29 18:09 | 43.89274 | 12.25828 | 35053 ft | 492 kts | 126° |
| 2026-04-29 18:10 | 43.85357 | 12.33580 | 35045 ft | 492 kts | 126° |
| 2026-04-29 18:10 | 43.81409 | 12.41373 | 35042 ft | 492 kts | 126° |
| 2026-04-29 18:11 | 43.77452 | 12.49161 | 35034 ft | 493 kts | 126° |
| 2026-04-29 18:11 | 43.73504 | 12.56914 | 35044 ft | 493 kts | 126° |
| 2026-04-29 18:12 | 43.69570 | 12.64617 | 35053 ft | 493 kts | 126° |
| 2026-04-29 18:12 | 43.65590 | 12.72391 | 35055 ft | 493 kts | 127° |
| 2026-04-29 18:13 | 43.61607 | 12.80149 | 35040 ft | 494 kts | 127° |
| 2026-04-29 18:13 | 43.57644 | 12.87848 | 35033 ft | 494 kts | 127° |
| 2026-04-29 18:14 | 43.53656 | 12.95577 | 35039 ft | 493 kts | 127° |
| 2026-04-29 18:14 | 43.49671 | 13.03277 | 35036 ft | 494 kts | 127° |
| 2026-04-29 18:15 | 43.45670 | 13.10990 | 35037 ft | 494 kts | 127° |
| 2026-04-29 18:15 | 43.41660 | 13.18701 | 35034 ft | 494 kts | 127° |
| 2026-04-29 18:16 | 43.37650 | 13.26390 | 35043 ft | 494 kts | 127° |
| 2026-04-29 18:16 | 43.33651 | 13.34040 | 35047 ft | 494 kts | 127° |
| 2026-04-29 18:17 | 43.29623 | 13.41725 | 35037 ft | 494 kts | 127° |
| 2026-04-29 18:17 | 43.25600 | 13.49380 | 35037 ft | 494 kts | 127° |
| 2026-04-29 18:18 | 43.21580 | 13.57009 | 35040 ft | 495 kts | 127° |
| 2026-04-29 18:18 | 43.17560 | 13.64618 | 35027 ft | 494 kts | 127° |
| 2026-04-29 18:19 | 43.13526 | 13.72236 | 35019 ft | 494 kts | 128° |
| 2026-04-29 18:19 | 43.09497 | 13.79824 | 35018 ft | 494 kts | 128° |
| 2026-04-29 18:20 | 43.05466 | 13.87397 | 35027 ft | 494 kts | 128° |
| 2026-04-29 18:20 | 43.01412 | 13.94994 | 35017 ft | 494 kts | 128° |
| 2026-04-29 18:21 | 42.97386 | 14.02519 | 35011 ft | 495 kts | 128° |
| 2026-04-29 18:21 | 42.93304 | 14.10130 | 35009 ft | 496 kts | 128° |
| 2026-04-29 18:22 | 42.89231 | 14.17704 | 35011 ft | 496 kts | 128° |
| 2026-04-29 18:22 | 42.85168 | 14.25241 | 35012 ft | 495 kts | 128° |
| 2026-04-29 18:23 | 42.81088 | 14.32789 | 35013 ft | 494 kts | 128° |
| 2026-04-29 18:23 | 42.77040 | 14.40261 | 35013 ft | 494 kts | 128° |
| 2026-04-29 18:24 | 42.72952 | 14.47786 | 35011 ft | 494 kts | 128° |
| 2026-04-29 18:24 | 42.68881 | 14.55263 | 35016 ft | 494 kts | 128° |
| 2026-04-29 18:25 | 42.64782 | 14.62771 | 35012 ft | 494 kts | 128° |
| 2026-04-29 18:25 | 42.60699 | 14.70232 | 35013 ft | 493 kts | 128° |
| 2026-04-29 18:26 | 42.56602 | 14.77699 | 35011 ft | 493 kts | 128° |
| 2026-04-29 18:26 | 42.52502 | 14.85154 | 35011 ft | 493 kts | 128° |
| 2026-04-29 18:27 | 42.48402 | 14.92591 | 35010 ft | 493 kts | 128° |
| 2026-04-29 18:27 | 42.44311 | 14.99992 | 35010 ft | 492 kts | 128° |
| 2026-04-29 18:28 | 42.40203 | 15.07406 | 35009 ft | 493 kts | 128° |
| 2026-04-29 18:28 | 42.36097 | 15.14797 | 35004 ft | 493 kts | 128° |
| 2026-04-29 18:29 | 42.31998 | 15.22159 | 35005 ft | 493 kts | 128° |
| 2026-04-29 18:29 | 42.27893 | 15.29514 | 35005 ft | 493 kts | 128° |
| 2026-04-29 18:30 | 42.23750 | 15.36918 | 35005 ft | 492 kts | 128° |
| 2026-04-29 18:30 | 42.19632 | 15.44259 | 35001 ft | 492 kts | 128° |
| 2026-04-29 18:31 | 42.15503 | 15.51601 | 35002 ft | 492 kts | 128° |
| 2026-04-29 18:31 | 42.11361 | 15.58948 | 34999 ft | 492 kts | 128° |
| 2026-04-29 18:32 | 42.07245 | 15.66232 | 34998 ft | 492 kts | 129° |
| 2026-04-29 18:32 | 42.01026 | 15.77205 | 34995 ft | 490 kts | 129° |
| 2026-04-29 18:33 | 41.96895 | 15.84472 | 34990 ft | 490 kts | 129° |
| 2026-04-29 18:33 | 41.92773 | 15.91705 | 34994 ft | 490 kts | 129° |
| 2026-04-29 18:34 | 41.89294 | 15.97796 | 34989 ft | 491 kts | 129° |
| 2026-04-29 18:34 | 41.86529 | 16.02629 | 34855 ft | 487 kts | 129° |
| 2026-04-29 18:34 | 41.84470 | 16.06223 | 34314 ft | 483 kts | 129° |
| 2026-04-29 18:35 | 41.82439 | 16.09765 | 33689 ft | 479 kts | 129° |
| 2026-04-29 18:35 | 41.80429 | 16.13266 | 33076 ft | 475 kts | 129° |
| 2026-04-29 18:35 | 41.78416 | 16.16767 | 32466 ft | 471 kts | 129° |
| 2026-04-29 18:35 | 41.76425 | 16.20226 | 31865 ft | 467 kts | 129° |
| 2026-04-29 18:36 | 41.74449 | 16.23656 | 31252 ft | 463 kts | 129° |
| 2026-04-29 18:36 | 41.72490 | 16.27052 | 30634 ft | 460 kts | 129° |
| 2026-04-29 18:36 | 41.70541 | 16.30428 | 30029 ft | 456 kts | 129° |
| 2026-04-29 18:36 | 41.68600 | 16.33785 | 29428 ft | 452 kts | 129° |
| 2026-04-29 18:37 | 41.66699 | 16.37069 | 28836 ft | 448 kts | 129° |
| 2026-04-29 18:37 | 41.64809 | 16.40330 | 28239 ft | 445 kts | 129° |
| 2026-04-29 18:37 | 41.62901 | 16.43620 | 27653 ft | 440 kts | 129° |
| 2026-04-29 18:37 | 41.61035 | 16.46834 | 27064 ft | 437 kts | 129° |
| 2026-04-29 18:38 | 41.59177 | 16.50030 | 26498 ft | 433 kts | 129° |
| 2026-04-29 18:38 | 41.57337 | 16.53194 | 25917 ft | 430 kts | 129° |
| 2026-04-29 18:38 | 41.55524 | 16.56305 | 25360 ft | 426 kts | 129° |
| 2026-04-29 18:38 | 41.53706 | 16.59423 | 24788 ft | 422 kts | 129° |
| 2026-04-29 18:39 | 41.51905 | 16.62508 | 24235 ft | 418 kts | 129° |
| 2026-04-29 18:39 | 41.50132 | 16.65543 | 23678 ft | 414 kts | 129° |
| 2026-04-29 18:39 | 41.48361 | 16.68571 | 23133 ft | 410 kts | 129° |
| 2026-04-29 18:39 | 41.46639 | 16.71513 | 22602 ft | 405 kts | 129° |
| 2026-04-29 18:40 | 41.44912 | 16.74461 | 22065 ft | 400 kts | 129° |
| 2026-04-29 18:40 | 41.43190 | 16.77395 | 21533 ft | 395 kts | 129° |
| 2026-04-29 18:40 | 41.41511 | 16.80256 | 21013 ft | 390 kts | 129° |
| 2026-04-29 18:40 | 41.39862 | 16.83062 | 20507 ft | 386 kts | 129° |
| 2026-04-29 18:41 | 41.34810 | 16.91106 | 19000 ft | 372 kts | 133° |
| 2026-04-29 18:41 | 41.33095 | 16.93697 | 18468 ft | 369 kts | 132° |
| 2026-04-29 18:42 | 41.31427 | 16.96253 | 17980 ft | 365 kts | 132° |
| 2026-04-29 18:42 | 41.29767 | 16.98750 | 17524 ft | 361 kts | 133° |
| 2026-04-29 18:42 | 41.28114 | 17.01234 | 17055 ft | 357 kts | 132° |
| 2026-04-29 18:42 | 41.26479 | 17.03690 | 16592 ft | 353 kts | 132° |
| 2026-04-29 18:43 | 41.24862 | 17.06120 | 16130 ft | 350 kts | 132° |
| 2026-04-29 18:43 | 41.23268 | 17.08511 | 15668 ft | 347 kts | 132° |
| 2026-04-29 18:43 | 41.21679 | 17.10895 | 15211 ft | 343 kts | 132° |
| 2026-04-29 18:43 | 41.20101 | 17.13261 | 14760 ft | 340 kts | 132° |
| 2026-04-29 18:44 | 41.18538 | 17.15604 | 14307 ft | 337 kts | 132° |
| 2026-04-29 18:44 | 41.16994 | 17.17904 | 13864 ft | 334 kts | 132° |
| 2026-04-29 18:44 | 41.15445 | 17.20205 | 13417 ft | 330 kts | 132° |
| 2026-04-29 18:44 | 41.13919 | 17.22471 | 12981 ft | 328 kts | 132° |
| 2026-04-29 18:45 | 41.12425 | 17.24690 | 12555 ft | 325 kts | 132° |
| 2026-04-29 18:45 | 41.10927 | 17.26911 | 12122 ft | 323 kts | 132° |
| 2026-04-29 18:45 | 41.09429 | 17.29133 | 11696 ft | 320 kts | 132° |
| 2026-04-29 18:45 | 41.07958 | 17.31311 | 11278 ft | 317 kts | 132° |
| 2026-04-29 18:46 | 41.06505 | 17.33463 | 10861 ft | 315 kts | 132° |
| 2026-04-29 18:46 | 41.05040 | 17.35631 | 10440 ft | 312 kts | 132° |
| 2026-04-29 18:46 | 41.03618 | 17.37732 | 10038 ft | 309 kts | 132° |
| 2026-04-29 18:46 | 41.02182 | 17.39854 | 9626 ft | 307 kts | 132° |
| 2026-04-29 18:47 | 41.00755 | 17.41961 | 9220 ft | 304 kts | 132° |
| 2026-04-29 18:47 | 40.99362 | 17.44018 | 8820 ft | 301 kts | 132° |
| 2026-04-29 18:47 | 40.97981 | 17.46054 | 8427 ft | 297 kts | 132° |
| 2026-04-29 18:47 | 40.96603 | 17.48084 | 8032 ft | 294 kts | 132° |
| 2026-04-29 18:48 | 40.95256 | 17.50069 | 7652 ft | 290 kts | 132° |
| 2026-04-29 18:48 | 40.93904 | 17.52059 | 7266 ft | 287 kts | 132° |
| 2026-04-29 18:48 | 40.92577 | 17.54011 | 6887 ft | 283 kts | 132° |
| 2026-04-29 18:48 | 40.91276 | 17.55924 | 6515 ft | 281 kts | 132° |
| 2026-04-29 18:49 | 40.89967 | 17.57848 | 6105 ft | 273 kts | 132° |
| 2026-04-29 18:49 | 40.88782 | 17.59684 | 5795 ft | 261 kts | 124° |
| 2026-04-29 18:49 | 40.87872 | 17.61732 | 5429 ft | 253 kts | 118° |
| 2026-04-29 18:49 | 40.87030 | 17.63727 | 5135 ft | 249 kts | 119° |
| 2026-04-29 18:50 | 40.86179 | 17.65734 | 4747 ft | 247 kts | 120° |
| 2026-04-29 18:50 | 40.85348 | 17.67690 | 4448 ft | 240 kts | 120° |
| 2026-04-29 18:50 | 40.84546 | 17.69574 | 4135 ft | 235 kts | 120° |
| 2026-04-29 18:50 | 40.83749 | 17.71447 | 3834 ft | 230 kts | 121° |
| 2026-04-29 18:51 | 40.82969 | 17.73276 | 3530 ft | 228 kts | 120° |
| 2026-04-29 18:51 | 40.82178 | 17.75071 | 3226 ft | 225 kts | 127° |
| 2026-04-29 18:51 | 40.81054 | 17.76486 | 2924 ft | 222 kts | 144° |
| 2026-04-29 18:51 | 40.79825 | 17.77713 | 2629 ft | 220 kts | 144° |
| 2026-04-29 18:52 | 40.78672 | 17.78976 | 2486 ft | 210 kts | 140° |
| 2026-04-29 18:52 | 40.77614 | 17.80255 | 2499 ft | 202 kts | 139° |
| 2026-04-29 18:52 | 40.76580 | 17.81517 | 2439 ft | 207 kts | 139° |
| 2026-04-29 18:52 | 40.75525 | 17.82809 | 2170 ft | 205 kts | 139° |
| 2026-04-29 18:53 | 40.74504 | 17.84065 | 1909 ft | 194 kts | 140° |
| 2026-04-29 18:53 | 40.73548 | 17.85239 | 1660 ft | 184 kts | 140° |
| 2026-04-29 18:53 | 40.72623 | 17.86374 | 1414 ft | 176 kts | 140° |
| 2026-04-29 18:53 | 40.71757 | 17.87437 | 1191 ft | 168 kts | 140° |
| 2026-04-29 18:54 | 40.70935 | 17.88446 | 946 ft | 155 kts | 141° |
| 2026-04-29 18:54 | 40.70193 | 17.89360 | 793 ft | 133 kts | 141° |
| 2026-04-29 18:54 | 40.69537 | 17.90172 | 590 ft | 127 kts | 141° |
| 2026-04-29 18:54 | 40.68921 | 17.90935 | 466 ft | 120 kts | 142° |
| 2026-04-29 18:55 | 40.68287 | 17.91711 | 318 ft | 123 kts | 142° |
| 2026-04-29 18:55 | 40.67655 | 17.92473 | 122 ft | 123 kts | 143° |
| 2026-04-29 18:55 | 40.67052 | 17.93215 | 30 ft | 107 kts | 143° |
| 2026-04-29 18:55 | 40.66581 | 17.93775 | 28 ft | 66 kts | 137° |
| 2026-04-29 18:56 | 40.66288 | 17.94130 | 26 ft | 51 kts | 135° |
| 2026-04-29 18:56 | 40.66084 | 17.94384 | 26 ft | 31 kts | 143° |
| 2026-04-29 18:56 | 40.65968 | 17.94514 | 28 ft | 18 kts | 140° |
| 2026-04-29 18:56 | 40.65920 | 17.94557 | 28 ft | 1 kts | 208° |
| 2026-04-29 18:57 | 40.65904 | 17.94507 | 30 ft | 8 kts | 248° |
| 2026-04-29 18:57 | 40.65870 | 17.94427 | 30 ft | 11 kts | 231° |
| 2026-04-29 18:57 | 40.65817 | 17.94340 | 31 ft | 13 kts | 231° |
| 2026-04-29 18:57 | 40.65846 | 17.94247 | 33 ft | 15 kts | 328° |
| 2026-04-29 18:58 | 40.65895 | 17.94239 | 32 ft | 0 kts | 10° |
| 2026-04-29 18:58 | 40.65906 | 17.94237 | 31 ft | 0 kts | 0° |